Time;durP1;ratioP1;P1;durP2;ratioP2;P2;SDS_P1;SDS_P2;PMS_P1;PMS_P2;Temp;Humidity;BMP_temperature;BMP_pressure;BME280_temperature;BME280_humidity;BME280_pressure;Samples;Min_cycle;Max_cycle;Signal;HPM_P1;HPM_P2
2022/12/12 00:01:51;;;;;;;;;;;16.10;60.30;;;;;;10213903;28;90726;-67
2022/12/12 00:06:52;;;;;;;;;;;16.10;60.30;;;;;;10214637;28;89717;-66
2022/12/12 00:11:54;;;;;;;;;;;16.10;60.30;;;;;;10215484;28;89115;-65
2022/12/12 00:16:56;;;;;;;;;;;16.00;60.30;;;;;;10214233;28;89077;-65
2022/12/12 00:21:58;;;;;;;;;;;16.00;60.40;;;;;;10215170;28;89097;-65
2022/12/12 00:26:59;;;;;;;;;;;15.90;60.30;;;;;;10214727;28;88735;-65
2022/12/12 00:32:01;;;;;;;;;;;15.90;60.40;;;;;;10215302;28;89083;-66
2022/12/12 00:37:03;;;;;;;;;;;15.90;60.40;;;;;;10215389;28;88416;-65
2022/12/12 00:42:05;;;;;;;;;;;15.80;60.30;;;;;;10215550;28;89064;-65
2022/12/12 00:47:07;;;;;;;;;;;15.80;60.20;;;;;;10200998;28;89386;-64
2022/12/12 00:52:09;;;;;;;;;;;15.80;60.10;;;;;;10213103;28;89783;-64
2022/12/12 00:57:10;;;;;;;;;;;15.70;60.00;;;;;;10216069;28;90043;-64
2022/12/12 01:02:12;;;;;;;;;;;15.70;60.20;;;;;;10216143;28;89057;-65
2022/12/12 01:07:14;;;;;;;;;;;15.70;60.40;;;;;;10214918;28;89191;-65
2022/12/12 01:12:16;;;;;;;;;;;15.80;60.40;;;;;;10214762;28;89439;-65
2022/12/12 01:17:18;;;;;;;;;;;15.90;60.20;;;;;;10212680;28;90410;-64
2022/12/12 01:22:19;;;;;;;;;;;16.00;61.00;;;;;;10212347;28;88870;-65
2022/12/12 01:27:21;;;;;;;;;;;16.00;59.70;;;;;;10213873;28;88318;-65
2022/12/12 01:32:23;;;;;;;;;;;16.10;59.50;;;;;;10212649;28;88836;-65
2022/12/12 01:37:25;;;;;;;;;;;16.00;59.50;;;;;;10213373;28;90011;-66
2022/12/12 01:42:27;;;;;;;;;;;16.00;59.40;;;;;;10209332;28;89767;-65
2022/12/12 01:47:28;;;;;;;;;;;16.00;59.40;;;;;;10212916;28;89871;-65
2022/12/12 01:52:33;;;;;;;;;;;16.00;59.60;;;;;;10212545;28;88812;-65
2022/12/12 01:57:40;;;;;;;;;;;15.90;59.40;;;;;;10212580;28;89073;-64
2022/12/12 02:02:43;;;;;;;;;;;15.90;59.50;;;;;;10628458;22;90052;-61
2022/12/12 02:07:44;;;;;;;;;;;15.80;59.50;;;;;;10170549;28;89993;-61
2022/12/12 02:12:46;;;;;;;;;;;15.80;59.50;;;;;;10169844;28;89743;-62
2022/12/12 02:17:48;;;;;;;;;;;15.70;59.60;;;;;;10171704;28;87922;-62
2022/12/12 02:23:08;;;;;;;;;;;15.70;59.60;;;;;;10172245;28;90151;-62
2022/12/12 02:28:22;;;;;;;;;;;15.70;59.70;;;;;;10171749;28;90201;-62
2022/12/12 02:33:29;;;;;;;;;;;15.60;59.60;;;;;;10169153;28;90103;-62
2022/12/12 02:38:46;;;;;;;;;;;15.60;59.80;;;;;;10170854;28;89214;-61
2022/12/12 02:44:11;;;;;;;;;;;15.60;59.80;;;;;;10170769;28;90161;-62
2022/12/12 02:49:21;;;;;;;;;;;15.80;59.70;;;;;;10170365;28;88179;-62
2022/12/12 02:54:23;;;;;;;;;;;15.90;59.50;;;;;;10174328;28;89145;-62
2022/12/12 02:59:36;;;;;;;;;;;16.00;59.20;;;;;;10177044;28;90017;-62
2022/12/12 03:10:11;;;;;;;;;;;15.90;58.90;;;;;;10178145;28;89296;-62
2022/12/12 03:15:22;;;;;;;;;;;16.00;59.00;;;;;;10175712;28;90092;-62
2022/12/12 03:20:39;;;;;;;;;;;15.90;58.90;;;;;;10176007;28;90338;-62
2022/12/12 03:25:46;;;;;;;;;;;15.90;58.90;;;;;;10174985;28;88910;-62
2022/12/12 03:30:51;;;;;;;;;;;15.80;58.80;;;;;;10191269;28;88341;-62
2022/12/12 03:36:06;;;;;;;;;;;15.80;58.90;;;;;;10175332;28;89036;-61
2022/12/12 03:41:12;;;;;;;;;;;15.80;59.00;;;;;;10176231;28;88983;-62
2022/12/12 03:46:26;;;;;;;;;;;15.70;59.00;;;;;;10175369;28;88234;-62
2022/12/12 03:51:29;;;;;;;;;;;15.70;59.10;;;;;;10175759;28;88953;-62
2022/12/12 03:56:39;;;;;;;;;;;15.60;59.10;;;;;;10175491;28;89070;-62
2022/12/12 04:01:49;;;;;;;;;;;15.60;59.20;;;;;;10177092;28;88225;-62
2022/12/12 04:06:58;;;;;;;;;;;15.50;59.30;;;;;;10174996;28;90090;-62
2022/12/12 04:17:38;;;;;;;;;;;15.70;59.30;;;;;;10174306;28;90467;-63
2022/12/12 04:28:04;;;;;;;;;;;15.90;58.90;;;;;;10174580;28;90061;-62
2022/12/12 04:33:09;;;;;;;;;;;15.80;58.60;;;;;;10174659;28;90204;-62
2022/12/12 04:38:14;;;;;;;;;;;15.90;58.70;;;;;;10174441;28;88975;-62
2022/12/12 04:43:18;;;;;;;;;;;15.80;58.60;;;;;;10171391;28;90228;-62
2022/12/12 06:05:35;;;;;;;;;;;16.10;57.90;;;;;;10155013;28;88860;-62
2022/12/12 06:10:37;;;;;;;;;;;16.10;57.70;;;;;;10170725;28;89234;-63
2022/12/12 06:15:39;;;;;;;;;;;16.20;57.70;;;;;;10171052;28;90743;-62
2022/12/12 06:20:41;;;;;;;;;;;16.30;57.70;;;;;;10169112;28;90156;-62
2022/12/12 06:25:43;;;;;;;;;;;16.40;57.40;;;;;;10169989;28;89471;-62
2022/12/12 06:30:45;;;;;;;;;;;16.60;57.20;;;;;;10177298;28;89009;-62
2022/12/12 06:35:57;;;;;;;;;;;16.70;56.90;;;;;;10178115;28;88887;-62
2022/12/12 06:40:59;;;;;;;;;;;16.70;57.70;;;;;;10177733;28;90238;-62
2022/12/12 06:46:04;;;;;;;;;;;16.70;56.70;;;;;;10177742;28;88211;-62
2022/12/12 06:51:07;;;;;;;;;;;16.60;56.70;;;;;;10177595;28;89577;-64
2022/12/12 06:56:09;;;;;;;;;;;16.60;58.50;;;;;;10178005;28;88168;-63
2022/12/12 07:01:12;;;;;;;;;;;16.60;58.60;;;;;;10192806;28;90154;-64
2022/12/12 07:06:14;;;;;;;;;;;16.60;58.80;;;;;;10175631;28;90028;-65
2022/12/12 07:11:17;;;;;;;;;;;16.60;58.70;;;;;;10177357;28;89074;-63
2022/12/12 07:16:19;;;;;;;;;;;16.50;59.00;;;;;;10176182;28;89994;-63
2022/12/12 07:21:21;;;;;;;;;;;16.50;59.00;;;;;;10176988;28;89956;-62
2022/12/12 07:26:23;;;;;;;;;;;16.50;58.80;;;;;;10177276;28;89758;-62
2022/12/12 07:31:25;;;;;;;;;;;16.60;58.60;;;;;;10175956;28;89055;-62
2022/12/12 07:36:27;;;;;;;;;;;16.70;58.40;;;;;;10175920;28;90102;-64
2022/12/12 07:41:28;;;;;;;;;;;16.80;58.20;;;;;;10175887;28;87675;-63
2022/12/12 07:46:30;;;;;;;;;;;17.00;57.80;;;;;;10175988;28;90060;-63
2022/12/12 07:51:32;;;;;;;;;;;17.10;56.20;;;;;;10190308;28;88994;-63
2022/12/12 07:56:33;;;;;;;;;;;17.10;55.80;;;;;;10175145;28;90802;-63
2022/12/12 08:01:35;;;;;;;;;;;17.00;55.80;;;;;;10175251;28;89935;-63
2022/12/12 08:06:38;;;;;;;;;;;17.00;57.30;;;;;;10175580;28;90137;-63
2022/12/12 08:11:40;;;;;;;;;;;17.00;57.20;;;;;;10173752;28;89111;-63
2022/12/12 08:16:47;;;;;;;;;;;17.00;57.50;;;;;;10175215;28;88888;-63
2022/12/12 08:21:48;;;;;;;;;;;17.10;57.50;;;;;;10174515;28;90048;-63
2022/12/12 08:26:51;;;;;;;;;;;17.10;57.50;;;;;;10189285;28;88992;-63
2022/12/12 08:31:53;;;;;;;;;;;17.10;57.50;;;;;;10174935;28;88850;-63
2022/12/12 08:36:54;;;;;;;;;;;17.00;57.60;;;;;;10175073;28;89387;-63
2022/12/12 08:41:56;;;;;;;;;;;16.90;57.80;;;;;;10158245;28;88441;-63
2022/12/12 08:46:58;;;;;;;;;;;16.90;57.90;;;;;;10173656;28;89837;-63
2022/12/12 08:51:59;;;;;;;;;;;16.90;58.20;;;;;;10173378;28;89025;-62
2022/12/12 08:57:02;;;;;;;;;;;17.00;58.20;;;;;;10155896;28;89402;-63
2022/12/12 09:02:04;;;;;;;;;;;17.00;58.10;;;;;;10172036;28;88531;-63
2022/12/12 09:07:06;;;;;;;;;;;17.00;58.10;;;;;;10187796;28;89119;-62
2022/12/12 09:12:09;;;;;;;;;;;16.90;58.00;;;;;;10173677;28;88820;-63
2022/12/12 09:17:11;;;;;;;;;;;16.80;58.00;;;;;;10173027;28;89051;-62
2022/12/12 09:22:12;;;;;;;;;;;16.80;58.20;;;;;;10174503;28;89286;-63
2022/12/12 09:27:14;;;;;;;;;;;16.80;58.10;;;;;;10173286;28;90051;-63
2022/12/12 09:32:17;;;;;;;;;;;16.70;58.20;;;;;;10156180;28;89514;-63
2022/12/12 09:37:26;;;;;;;;;;;16.70;58.20;;;;;;10171970;28;89788;-62
2022/12/12 09:42:29;;;;;;;;;;;16.70;58.40;;;;;;10172446;28;88871;-62
2022/12/12 09:47:41;;;;;;;;;;;16.70;58.50;;;;;;10172569;28;89259;-62
2022/12/12 09:52:43;;;;;;;;;;;16.70;58.50;;;;;;10172107;28;88848;-63
2022/12/12 09:57:50;;;;;;;;;;;16.80;58.60;;;;;;10172774;28;88272;-63
2022/12/12 10:02:59;;;;;;;;;;;16.90;58.50;;;;;;10188374;28;88975;-63
2022/12/12 10:08:09;;;;;;;;;;;17.10;58.30;;;;;;10179153;28;89009;-62
2022/12/12 10:13:16;;;;;;;;;;;17.10;58.10;;;;;;10180684;28;88845;-62
2022/12/12 10:18:30;;;;;;;;;;;17.10;58.00;;;;;;10177545;28;90006;-62
2022/12/12 10:23:38;;;;;;;;;;;17.10;58.00;;;;;;10179145;28;89851;-63
2022/12/12 10:28:40;;;;;;;;;;;17.00;58.00;;;;;;10178191;28;89733;-62
2022/12/12 10:33:59;;;;;;;;;;;17.00;58.10;;;;;;10177937;28;89363;-62
2022/12/12 10:39:06;;;;;;;;;;;17.00;58.10;;;;;;10177618;28;89071;-62
2022/12/12 10:44:17;;;;;;;;;;;17.00;58.20;;;;;;10177507;28;88720;-63
2022/12/12 10:49:21;;;;;;;;;;;16.90;58.30;;;;;;10177465;28;90341;-63
2022/12/12 10:54:25;;;;;;;;;;;16.80;58.40;;;;;;10177407;28;89766;-62
2022/12/12 10:59:27;;;;;;;;;;;16.90;58.60;;;;;;10173295;28;93429;-63
2022/12/12 11:04:30;;;;;;;;;;;16.90;58.50;;;;;;10172356;28;93779;-62
2022/12/12 11:09:32;;;;;;;;;;;16.80;58.40;;;;;;10172469;28;93524;-63
2022/12/12 11:14:35;;;;;;;;;;;16.80;58.50;;;;;;10171649;28;93765;-63
2022/12/12 11:19:38;;;;;;;;;;;16.80;58.50;;;;;;10168966;28;96082;-63
2022/12/12 11:24:42;;;;;;;;;;;16.80;58.40;;;;;;10170646;28;94477;-63
2022/12/12 11:29:46;;;;;;;;;;;16.80;58.40;;;;;;10171133;28;93475;-63
2022/12/12 11:34:50;;;;;;;;;;;16.70;58.40;;;;;;10170245;28;94503;-63
2022/12/12 11:39:53;;;;;;;;;;;16.60;58.30;;;;;;10170254;28;93517;-63
2022/12/12 11:44:56;;;;;;;;;;;16.60;58.50;;;;;;10172117;28;94347;-62
2022/12/12 11:49:58;;;;;;;;;;;16.50;58.60;;;;;;10170661;28;94299;-63
2022/12/12 11:55:00;;;;;;;;;;;16.40;58.70;;;;;;10171122;28;92430;-63
2022/12/12 12:00:05;;;;;;;;;;;16.30;58.80;;;;;;10171235;28;94609;-62
2022/12/12 12:05:12;;;;;;;;;;;16.30;59.00;;;;;;10169973;28;93482;-65
2022/12/12 12:10:33;;;;;;;;;;;16.20;59.20;;;;;;10168490;28;96442;-63
2022/12/12 12:16:01;;;;;;;;;;;16.20;59.50;;;;;;10169190;28;93636;-62
2022/12/12 12:21:06;;;;;;;;;;;16.20;59.80;;;;;;10167724;28;93429;-62
2022/12/12 12:26:12;;;;;;;;;;;16.10;60.00;;;;;;10169288;28;92919;-62
2022/12/12 12:31:26;;;;;;;;;;;16.10;60.20;;;;;;10169133;28;96185;-62
2022/12/12 12:36:34;;;;;;;;;;;16.00;60.60;;;;;;10169479;28;93527;-63
2022/12/12 12:41:43;;;;;;;;;;;16.10;60.40;;;;;;10168981;28;93579;-62
2022/12/12 12:46:55;;;;;;;;;;;16.00;60.30;;;;;;10170145;28;93765;-62
2022/12/12 12:52:01;;;;;;;;;;;15.90;60.20;;;;;;10167271;28;93639;-63
2022/12/12 12:57:03;;;;;;;;;;;15.90;60.10;;;;;;10169371;28;94602;-63
2022/12/12 13:02:23;;;;;;;;;;;15.80;60.00;;;;;;10165974;28;95801;-62
2022/12/12 13:07:34;;;;;;;;;;;15.80;59.80;;;;;;10168602;28;94395;-62
2022/12/12 13:12:43;;;;;;;;;;;15.80;59.70;;;;;;10182411;28;93759;-62
2022/12/12 13:18:03;;;;;;;;;;;15.70;60.10;;;;;;10167918;28;93444;-63
2022/12/12 13:23:11;;;;;;;;;;;15.80;60.20;;;;;;10168105;28;93468;-62
2022/12/12 13:28:18;;;;;;;;;;;15.80;60.00;;;;;;10167898;28;93474;-62
2022/12/12 13:33:26;;;;;;;;;;;15.90;60.00;;;;;;10167416;28;92801;-62
2022/12/12 13:38:30;;;;;;;;;;;16.00;59.80;;;;;;10166415;28;92672;-62
2022/12/12 13:43:31;;;;;;;;;;;16.00;59.60;;;;;;10168790;28;94311;-63
2022/12/12 13:48:38;;;;;;;;;;;16.00;59.40;;;;;;10167368;28;93456;-63
2022/12/12 13:53:47;;;;;;;;;;;16.00;59.40;;;;;;10163517;28;95795;-63
2022/12/12 13:58:48;;;;;;;;;;;16.00;59.30;;;;;;10167140;28;92540;-63
2022/12/12 14:03:50;;;;;;;;;;;15.90;59.20;;;;;;10165965;28;94574;-63
2022/12/12 14:08:52;;;;;;;;;;;15.80;59.20;;;;;;10167025;28;94365;-63
2022/12/12 14:14:16;;;;;;;;;;;15.80;59.20;;;;;;10166717;28;93454;-63
2022/12/12 14:19:24;;;;;;;;;;;15.80;59.20;;;;;;10166301;28;93479;-63
2022/12/12 14:24:31;;;;;;;;;;;15.70;59.30;;;;;;10166442;28;93375;-62
2022/12/12 14:29:33;;;;;;;;;;;15.70;59.30;;;;;;10166872;28;92257;-62
2022/12/12 14:34:41;;;;;;;;;;;15.70;59.30;;;;;;10166811;28;93506;-62
2022/12/12 14:40:00;;;;;;;;;;;15.60;59.40;;;;;;10165400;28;94790;-62
2022/12/12 14:45:21;;;;;;;;;;;15.70;59.40;;;;;;10163190;28;96667;-62
2022/12/12 14:50:23;;;;;;;;;;;15.70;59.30;;;;;;10170610;28;93277;-63
2022/12/12 14:55:25;;;;;;;;;;;15.80;59.10;;;;;;10172062;28;93480;-62
2022/12/12 15:00:27;;;;;;;;;;;15.90;58.90;;;;;;10172593;28;93111;-62
2022/12/12 15:05:29;;;;;;;;;;;16.00;58.70;;;;;;10186827;28;94569;-63
2022/12/12 15:10:32;;;;;;;;;;;16.00;58.60;;;;;;10172171;28;94555;-62
2022/12/12 15:15:33;;;;;;;;;;;15.90;58.40;;;;;;10171478;28;93322;-62
2022/12/12 15:20:35;;;;;;;;;;;15.90;58.40;;;;;;10172273;28;93682;-62
2022/12/12 15:25:46;;;;;;;;;;;15.80;58.30;;;;;;10170772;28;93489;-62
2022/12/12 15:30:50;;;;;;;;;;;15.80;58.30;;;;;;10171712;28;94470;-62
2022/12/12 15:36:00;;;;;;;;;;;15.80;58.30;;;;;;10169398;28;97096;-62
2022/12/12 15:41:06;;;;;;;;;;;15.70;58.30;;;;;;10170526;28;93654;-62
2022/12/12 15:46:14;;;;;;;;;;;15.70;58.40;;;;;;10184699;28;94053;-62
2022/12/12 15:51:17;;;;;;;;;;;15.60;58.40;;;;;;10170886;28;93487;-62
2022/12/12 15:56:27;;;;;;;;;;;15.60;58.50;;;;;;10169320;28;93363;-62
2022/12/12 16:01:29;;;;;;;;;;;15.50;58.50;;;;;;10168865;28;94148;-62
2022/12/12 16:06:34;;;;;;;;;;;15.60;58.60;;;;;;10169661;28;94846;-62
2022/12/12 16:11:49;;;;;;;;;;;15.60;58.50;;;;;;10171694;28;93872;-62
2022/12/12 16:16:53;;;;;;;;;;;15.80;58.30;;;;;;10169225;28;94485;-62
2022/12/12 16:21:55;;;;;;;;;;;15.80;58.10;;;;;;10169939;28;94551;-62
2022/12/12 16:26:57;;;;;;;;;;;15.80;57.90;;;;;;10166599;28;96771;-62
2022/12/12 16:31:59;;;;;;;;;;;15.80;57.70;;;;;;10169359;28;94533;-62
2022/12/12 16:37:01;;;;;;;;;;;15.80;57.70;;;;;;10168222;28;93474;-62
2022/12/12 16:42:03;;;;;;;;;;;15.80;57.70;;;;;;10168795;28;93256;-61
2022/12/12 16:47:15;;;;;;;;;;;15.80;57.70;;;;;;10168950;28;94178;-61
2022/12/12 16:52:18;;;;;;;;;;;15.80;57.80;;;;;;10168771;28;93958;-62
2022/12/12 16:57:20;;;;;;;;;;;15.80;57.70;;;;;;10168554;28;93814;-62
2022/12/12 17:02:22;;;;;;;;;;;15.80;57.50;;;;;;10168395;28;92817;-61
2022/12/12 17:07:24;;;;;;;;;;;15.80;57.50;;;;;;10168383;28;93528;-61
2022/12/12 17:12:26;;;;;;;;;;;15.70;57.40;;;;;;10167861;28;94364;-61
2022/12/12 17:17:27;;;;;;;;;;;15.70;57.60;;;;;;10164600;28;96486;-61
2022/12/12 17:22:29;;;;;;;;;;;15.90;57.60;;;;;;10168183;28;92503;-61
2022/12/12 17:27:31;;;;;;;;;;;16.10;57.40;;;;;;10167238;28;94192;-61
2022/12/12 17:32:33;;;;;;;;;;;16.30;57.00;;;;;;10167019;28;92897;-61
2022/12/12 17:37:36;;;;;;;;;;;16.60;56.70;;;;;;10167247;28;94503;-62
2022/12/12 17:42:37;;;;;;;;;;;16.70;56.30;;;;;;10167192;28;94932;-62
2022/12/12 17:47:39;;;;;;;;;;;16.80;55.80;;;;;;10166551;28;94478;-62
2022/12/12 17:52:41;;;;;;;;;;;16.90;55.80;;;;;;10151581;28;93736;-62
2022/12/12 17:57:43;;;;;;;;;;;16.90;55.60;;;;;;10166003;28;93383;-62
2022/12/12 18:02:44;;;;;;;;;;;16.90;55.40;;;;;;10180451;28;93507;-62
2022/12/12 18:07:46;;;;;;;;;;;16.90;55.40;;;;;;10163924;28;96403;-60
2022/12/12 18:12:49;;;;;;;;;;;16.90;55.10;;;;;;10166445;28;93497;-61
2022/12/12 18:17:53;;;;;;;;;;;16.90;56.90;;;;;;10165088;28;94442;-62
2022/12/12 18:22:54;;;;;;;;;;;17.00;59.50;;;;;;10167487;28;94272;-61
2022/12/12 18:27:57;;;;;;;;;;;17.10;58.70;;;;;;10173503;28;93480;-62
2022/12/12 18:32:59;;;;;;;;;;;17.10;57.30;;;;;;10172082;28;94480;-61
2022/12/12 18:38:03;;;;;;;;;;;17.20;56.80;;;;;;10172508;28;92646;-61
2022/12/12 18:43:05;;;;;;;;;;;17.20;56.50;;;;;;10173021;28;92742;-60
2022/12/12 18:48:07;;;;;;;;;;;17.10;56.50;;;;;;10173767;28;94747;-61
2022/12/12 18:53:09;;;;;;;;;;;17.10;56.50;;;;;;10172268;28;93459;-61
2022/12/12 18:58:11;;;;;;;;;;;17.10;56.70;;;;;;10170954;28;96856;-62
2022/12/12 19:03:13;;;;;;;;;;;17.10;56.60;;;;;;10171698;28;94169;-62
2022/12/12 19:08:14;;;;;;;;;;;17.20;56.40;;;;;;10172164;28;93859;-62
2022/12/12 19:13:16;;;;;;;;;;;17.20;56.30;;;;;;10171858;28;94349;-63
2022/12/12 19:18:18;;;;;;;;;;;17.20;56.30;;;;;;10185487;28;93263;-62
2022/12/12 19:23:20;;;;;;;;;;;17.20;56.10;;;;;;10171838;28;94569;-62
2022/12/12 19:28:22;;;;;;;;;;;17.10;56.10;;;;;;10171879;28;94562;-62
2022/12/12 19:33:24;;;;;;;;;;;17.10;56.30;;;;;;10186314;28;93737;-63
2022/12/12 19:38:26;;;;;;;;;;;17.20;56.30;;;;;;10170437;28;93228;-63
2022/12/12 19:43:29;;;;;;;;;;;17.30;56.20;;;;;;10171239;28;94673;-64
2022/12/12 19:48:31;;;;;;;;;;;17.40;56.00;;;;;;10167675;28;95733;-63
2022/12/12 19:53:34;;;;;;;;;;;17.40;55.70;;;;;;10169213;28;94195;-62
2022/12/12 19:58:36;;;;;;;;;;;17.30;55.80;;;;;;10169482;28;93431;-63
2022/12/12 20:03:39;;;;;;;;;;;17.30;55.80;;;;;;10169372;28;93537;-63
2022/12/12 20:08:41;;;;;;;;;;;17.20;55.70;;;;;;10183692;28;94199;-62
2022/12/12 20:13:47;;;;;;;;;;;17.30;55.80;;;;;;10183946;28;94422;-62
2022/12/12 20:18:49;;;;;;;;;;;17.40;55.70;;;;;;10169214;28;93436;-62
2022/12/12 20:23:52;;;;;;;;;;;17.40;55.40;;;;;;10169651;28;93733;-61
2022/12/12 20:28:55;;;;;;;;;;;17.30;55.20;;;;;;10183904;28;94849;-63
2022/12/12 20:33:57;;;;;;;;;;;17.30;55.30;;;;;;10168504;28;94819;-63
2022/12/12 20:38:59;;;;;;;;;;;17.30;55.40;;;;;;10164907;28;95846;-63
2022/12/12 20:44:01;;;;;;;;;;;17.30;55.40;;;;;;10167638;28;93006;-62
2022/12/12 20:49:04;;;;;;;;;;;17.40;55.30;;;;;;10168267;28;93281;-62
2022/12/12 20:54:06;;;;;;;;;;;17.40;55.10;;;;;;10166554;28;92785;-62
2022/12/12 20:59:09;;;;;;;;;;;17.40;55.10;;;;;;10168593;28;94390;-63
2022/12/12 21:04:11;;;;;;;;;;;17.30;55.20;;;;;;10167706;28;93983;-62
2022/12/12 21:09:12;;;;;;;;;;;17.30;55.30;;;;;;10168659;28;93408;-62
2022/12/12 21:14:29;;;;;;;;;;;17.30;55.30;;;;;;10168610;28;92809;-63
2022/12/12 21:19:31;;;;;;;;;;;17.30;55.30;;;;;;10167256;28;94589;-63
2022/12/12 21:24:32;;;;;;;;;;;17.20;55.20;;;;;;10166867;28;93106;-63
2022/12/12 21:29:34;;;;;;;;;;;17.10;55.20;;;;;;10165417;28;95698;-63
2022/12/12 21:34:38;;;;;;;;;;;17.00;55.30;;;;;;10166601;28;93447;-62
2022/12/12 21:39:43;;;;;;;;;;;16.90;55.40;;;;;;10166591;28;93530;-62
2022/12/12 21:44:46;;;;;;;;;;;16.80;55.60;;;;;;10165794;28;113070;-63
2022/12/12 21:49:48;;;;;;;;;;;16.70;55.80;;;;;;10167060;28;93254;-62
2022/12/12 21:54:50;;;;;;;;;;;16.60;56.00;;;;;;10166836;28;93867;-63
2022/12/12 21:59:52;;;;;;;;;;;16.50;56.30;;;;;;10180938;28;94964;-63
2022/12/12 22:04:54;;;;;;;;;;;16.40;56.50;;;;;;10166629;28;92510;-62
2022/12/12 22:09:56;;;;;;;;;;;16.30;56.70;;;;;;10166584;28;93954;-62
2022/12/12 22:15:12;;;;;;;;;;;16.20;56.70;;;;;;10165883;28;93199;-62
2022/12/12 22:20:14;;;;;;;;;;;16.20;56.80;;;;;;10163078;28;96052;-62
2022/12/12 22:25:16;;;;;;;;;;;16.10;57.80;;;;;;10165934;28;93418;-62
2022/12/12 22:30:18;;;;;;;;;;;16.10;56.90;;;;;;10166265;28;94507;-62
2022/12/12 22:35:19;;;;;;;;;;;16.00;57.00;;;;;;10165204;28;93649;-62
2022/12/12 22:40:21;;;;;;;;;;;15.90;57.20;;;;;;10165044;28;93498;-62
2022/12/12 22:45:24;;;;;;;;;;;15.90;57.10;;;;;;10164698;28;94527;-62
2022/12/12 22:50:26;;;;;;;;;;;15.90;57.20;;;;;;10166009;28;93417;-62
2022/12/12 22:55:28;;;;;;;;;;;15.80;57.00;;;;;;10149154;28;92638;-62
2022/12/12 23:00:30;;;;;;;;;;;15.70;56.70;;;;;;10165641;28;94542;-62
2022/12/12 23:05:31;;;;;;;;;;;15.70;56.60;;;;;;10164231;28;94158;-62
2022/12/12 23:10:33;;;;;;;;;;;15.70;56.50;;;;;;10165717;28;95982;-62
2022/12/12 23:15:37;;;;;;;;;;;15.60;56.60;;;;;;10171624;28;93522;-61
2022/12/12 23:20:39;;;;;;;;;;;15.60;56.60;;;;;;10170945;28;94155;-62
2022/12/12 23:25:41;;;;;;;;;;;15.60;56.60;;;;;;10171510;28;93466;-61
2022/12/12 23:30:42;;;;;;;;;;;15.70;56.30;;;;;;10171436;28;93496;-61
2022/12/12 23:35:45;;;;;;;;;;;15.80;56.10;;;;;;10170691;28;93257;-61
2022/12/12 23:40:47;;;;;;;;;;;15.80;55.80;;;;;;10170933;28;92876;-61
2022/12/12 23:45:49;;;;;;;;;;;15.90;55.70;;;;;;10171232;28;92827;-62
2022/12/12 23:50:50;;;;;;;;;;;15.80;55.50;;;;;;10185300;28;94510;-61
2022/12/12 23:55:52;;;;;;;;;;;15.80;55.50;;;;;;10169733;28;94614;-61
